| time (UTC) | temp F | wind direction | speed knots | gust knots | rain 1hr in | rain 24hr in | rain mn in | humidity % | barometer mb |
| 20260504110332 | 92 | 0.0 | 0.0 | 0.00 | 0.00 | 0.00 | 61 | 1003.8 | |
| 20260504100332 | 94 | 0.0 | 0.0 | 0.00 | 0.00 | 0.00 | 54 | 1002.8 | |
| 20260504081831 | 99 | 0.0 | 0.0 | 0.00 | 0.00 | 0.00 | 53 | 1003.2 | |
| 20260504081331 | 99 | 0.0 | 0.0 | 0.00 | 0.00 | 0.00 | 53 | 1003.1 | |
| 20260504080832 | 99 | 0.0 | 0.0 | 0.00 | 0.00 | 0.00 | 53 | 1003.3 | |
| 20260504080332 | 98 | 0.0 | 0.0 | 0.00 | 0.00 | 0.00 | 53 | 1003.3 | |
| 20260504070331 | 97 | 0.0 | 0.0 | 0.00 | 0.00 | 0.00 | 55 | 1004.8 | |
| 20260504050330 | 96 | 0.0 | 0.0 | 0.00 | 0.00 | 0.00 | 58 | 1007.4 | |
| 20260504045830 | 96 | 0.0 | 0.0 | 0.00 | 0.00 | 0.00 | 58 | 1007.4 | |
| 20260504045331 | 95 | 0.0 | 0.0 | 0.00 | 0.00 | 0.00 | 58 | 1007.4 | |
| 20260504044831 | 95 | 0.0 | 0.0 | 0.00 | 0.00 | 0.00 | 59 | 1007.5 | |
| 20260504044331 | 95 | 0.0 | 0.0 | 0.00 | 0.00 | 0.00 | 59 | 1007.4 | |
| 20260504043831 | 94 | 0.0 | 0.0 | 0.00 | 0.00 | 0.00 | 60 | 1007.5 | |
| 20260504043331 | 95 | 0.0 | 0.0 | 0.00 | 0.00 | 0.00 | 60 | 1007.7 | |
| 20260504042831 | 94 | 0.0 | 0.0 | 0.00 | 0.00 | 0.00 | 60 | 1007.7 | |
| 20260504042330 | 94 | 0.0 | 0.0 | 0.00 | 0.00 | 0.00 | 60 | 1007.6 | |
| 20260504041830 | 94 | 0.0 | 0.0 | 0.00 | 0.00 | 0.00 | 60 | 1007.8 | |
| 20260504041331 | 94 | 0.0 | 0.0 | 0.00 | 0.00 | 0.00 | 60 | 1007.8 | |
| 20260504040831 | 94 | 0.0 | 0.0 | 0.00 | 0.00 | 0.00 | 60 | 1007.9 | |
| 20260504040331 | 94 | 0.0 | 0.0 | 0.00 | 0.00 | 0.00 | 60 | 1007.8 | |
| 20260504035831 | 94 | 0.0 | 0.0 | 0.00 | 0.00 | 0.00 | 59 | 1007.8 | |
| 20260504035331 | 94 | 0.0 | 0.0 | 0.00 | 0.00 | 0.00 | 59 | 1007.9 | |
| 20260504034831 | 94 | 0.0 | 0.0 | 0.00 | 0.00 | 0.00 | 60 | 1007.9 | |
| 20260504034330 | 94 | 0.0 | 0.0 | 0.00 | 0.00 | 0.00 | 60 | 1008.0 | |
| 20260504033830 | 94 | 0.0 | 0.0 | 0.00 | 0.00 | 0.00 | 60 | 1008.0 | |
| 20260504033330 | 94 | 0.0 | 0.0 | 0.00 | 0.00 | 0.00 | 60 | 1008.0 | |
| 20260504032831 | 94 | 0.0 | 0.0 | 0.00 | 0.00 | 0.00 | 60 | 1008.1 | |
| 20260504032331 | 94 | 0.0 | 0.0 | 0.00 | 0.00 | 0.00 | 61 | 1008.1 | |
| 20260504031831 | 94 | 0.0 | 0.0 | 0.00 | 0.00 | 0.00 | 62 | 1008.1 | |
| 20260504031331 | 93 | 0.0 | 0.0 | 0.00 | 0.00 | 0.00 | 62 | 1008.1 | |
| 20260504030830 | 93 | 0.0 | 0.0 | 0.00 | 0.00 | 0.00 | 62 | 1008.2 | |
| 20260504030331 | 93 | 0.0 | 0.0 | 0.00 | 0.00 | 0.00 | 62 | 1008.3 | |
| 20260504025831 | 93 | 0.0 | 0.0 | 0.00 | 0.00 | 0.00 | 63 | 1008.2 | |
| 20260504025331 | 93 | 0.0 | 0.0 | 0.00 | 0.00 | 0.00 | 63 | 1008.3 | |
| 20260504024831 | 92 | 0.0 | 0.0 | 0.00 | 0.00 | 0.00 | 64 | 1008.4 | |
| 20260504024331 | 92 | 0.0 | 0.0 | 0.00 | 0.00 | 0.00 | 64 | 1008.4 | |
| 20260504023831 | 93 | 0.0 | 0.0 | 0.00 | 0.00 | 0.00 | 64 | 1008.5 | |
| 20260504023330 | 93 | 0.0 | 0.0 | 0.00 | 0.00 | 0.00 | 64 | 1008.5 | |
| 20260504022830 | 93 | 0.0 | 0.0 | 0.00 | 0.00 | 0.00 | 64 | 1008.5 | |
| 20260504022330 | 93 | 0.0 | 0.0 | 0.00 | 0.00 | 0.00 | 64 | 1008.5 | |
| 20260504021831 | 93 | 0.0 | 0.0 | 0.00 | 0.00 | 0.00 | 64 | 1008.4 | |
| 20260504021331 | 92 | 0.0 | 0.0 | 0.00 | 0.00 | 0.00 | 65 | 1008.4 | |
| 20260504020830 | 92 | 0.0 | 0.0 | 0.00 | 0.00 | 0.00 | 65 | 1008.3 | |
| 20260504020331 | 92 | 0.0 | 0.0 | 0.00 | 0.00 | 0.00 | 65 | 1008.3 | |
| 20260504015831 | 92 | 0.0 | 0.0 | 0.00 | 0.00 | 0.00 | 65 | 1008.3 | |
| 20260504015331 | 92 | 0.0 | 0.0 | 0.00 | 0.00 | 0.00 | 65 | 1008.3 | |
| 20260504014831 | 92 | 0.0 | 0.0 | 0.00 | 0.00 | 0.00 | 65 | 1008.4 | |
| 20260504014330 | 92 | 0.0 | 0.0 | 0.00 | 0.00 | 0.00 | 65 | 1008.3 | |
| 20260504013830 | 93 | 0.0 | 0.0 | 0.00 | 0.00 | 0.00 | 63 | 1008.3 | |
| 20260504013331 | 93 | 0.0 | 0.0 | 0.00 | 0.00 | 0.00 | 63 | 1008.1 | |
| 20260504012831 | 94 | 0.0 | 0.0 | 0.00 | 0.00 | 0.00 | 61 | 1008.1 | |
| 20260504012330 | 93 | 0.0 | 0.0 | 0.00 | 0.00 | 0.00 | 63 | 1008.0 | |
| 20260504011830 | 93 | 0.0 | 0.0 | 0.00 | 0.00 | 0.00 | 62 | 1008.1 | |
| 20260504011330 | 92 | 0.0 | 0.0 | 0.00 | 0.00 | 0.00 | 63 | 1008.1 | |
| 20260504010830 | 93 | 0.0 | 0.0 | 0.00 | 0.00 | 0.00 | 61 | 1008.1 | |
| 20260504010330 | 92 | 0.0 | 0.0 | 0.00 | 0.00 | 0.00 | 62 | 1008.1 | |
| 20260504005831 | 91 | 0.0 | 0.0 | 0.00 | 0.00 | 0.00 | 63 | 1008.1 | |
| 20260504005330 | 92 | 0.0 | 0.0 | 0.00 | 0.00 | 0.00 | 62 | 1008.0 | |
| 20260504004830 | 94 | 0.0 | 0.0 | 0.00 | 0.00 | 0.00 | 58 | 1007.9 | |
| 20260504004330 | 94 | 0.0 | 0.0 | 0.00 | 0.00 | 0.00 | 59 | 1007.8 | |
| 20260504003830 | 92 | 0.0 | 0.0 | 0.00 | 0.00 | 0.00 | 61 | 1007.7 | |
| 20260504003330 | 93 | 0.0 | 0.0 | 0.00 | 0.00 | 0.00 | 59 | 1007.6 | |
| 20260504002830 | 96 | 0.0 | 0.0 | 0.00 | 0.00 | 0.00 | 55 | 1007.5 | |
| 20260504002330 | 96 | 0.0 | 0.0 | 0.00 | 0.00 | 0.00 | 54 | 1007.4 | |
| 20260504001830 | 96 | 0.0 | 0.0 | 0.00 | 0.00 | 0.00 | 54 | 1007.3 | |
| 20260504001330 | 97 | 0.0 | 0.0 | 0.00 | 0.00 | 0.00 | 54 | 1007.2 | |
| 20260504000830 | 96 | 0.0 | 0.0 | 0.00 | 0.00 | 0.00 | 55 | 1007.1 | |
| 20260504000330 | 96 | 0.0 | 0.0 | 0.00 | 0.00 | 0.00 | 55 | 1007.1 | |
| 20260503235830 | 95 | 0.0 | 0.0 | 0.00 | 0.00 | 0.00 | 56 | 1007.1 | |
| 20260503235330 | 96 | 0.0 | 0.0 | 0.00 | 0.00 | 0.00 | 55 | 1007.0 | |
| 20260503234830 | 96 | 0.0 | 0.0 | 0.00 | 0.00 | 0.00 | 56 | 1007.0 | |
| 20260503234330 | 96 | 0.0 | 0.0 | 0.00 | 0.00 | 0.00 | 56 | 1006.9 | |
| 20260503233830 | 96 | 0.0 | 0.0 | 0.00 | 0.00 | 0.00 | 56 | 1006.8 | |
| 20260503233330 | 96 | 0.0 | 0.0 | 0.00 | 0.00 | 0.00 | 56 | 1006.8 | |
| 20260503232830 | 96 | 0.0 | 0.0 | 0.00 | 0.00 | 0.00 | 55 | 1006.7 | |
| 20260503232330 | 95 | 0.0 | 0.0 | 0.00 | 0.00 | 0.00 | 56 | 1006.6 | |
| 20260503231830 | 96 | 0.0 | 0.0 | 0.00 | 0.00 | 0.00 | 56 | 1006.6 | |
| 20260503231330 | 96 | 0.0 | 0.0 | 0.00 | 0.00 | 0.00 | 56 | 1006.5 | |
| 20260503230830 | 96 | 0.0 | 0.0 | 0.00 | 0.00 | 0.00 | 55 | 1006.4 | |
| 20260503230330 | 96 | 0.0 | 0.0 | 0.00 | 0.00 | 0.00 | 56 | 1006.3 | |
| 20260503225830 | 95 | 0.0 | 0.0 | 0.00 | 0.00 | 0.00 | 57 | 1006.3 | |
| 20260503225330 | 95 | 0.0 | 0.0 | 0.00 | 0.00 | 0.00 | 56 | 1006.1 | |
| 20260503224830 | 95 | 0.0 | 0.0 | 0.00 | 0.00 | 0.00 | 57 | 1006.2 | |
| 20260503224330 | 96 | 0.0 | 0.0 | 0.00 | 0.00 | 0.00 | 56 | 1006.2 | |
| 20260503223830 | 96 | 0.0 | 0.0 | 0.00 | 0.00 | 0.00 | 56 | 1006.1 | |
| 20260503223330 | 95 | 0.0 | 0.0 | 0.00 | 0.00 | 0.00 | 56 | 1005.9 | |
| 20260503222830 | 95 | 0.0 | 0.0 | 0.00 | 0.00 | 0.00 | 56 | 1005.8 | |
| 20260503222330 | 96 | 0.0 | 0.0 | 0.00 | 0.00 | 0.00 | 56 | 1005.7 | |
| 20260503221830 | 95 | 0.0 | 0.0 | 0.00 | 0.00 | 0.00 | 57 | 1005.7 | |
| 20260503221330 | 95 | 0.0 | 0.0 | 0.00 | 0.00 | 0.00 | 56 | 1005.7 | |
| 20260503220831 | 95 | 0.0 | 0.0 | 0.00 | 0.00 | 0.00 | 56 | 1005.6 | |
| 20260503220331 | 95 | 0.0 | 0.0 | 0.00 | 0.00 | 0.00 | 56 | 1005.5 | |
| 20260503215830 | 95 | 0.0 | 0.0 | 0.00 | 0.00 | 0.00 | 56 | 1005.4 | |
| 20260503215330 | 95 | 0.0 | 0.0 | 0.00 | 0.00 | 0.00 | 56 | 1005.3 | |
| 20260503214830 | 96 | 0.0 | 0.0 | 0.00 | 0.00 | 0.00 | 56 | 1005.3 | |
| 20260503214330 | 95 | 0.0 | 0.0 | 0.00 | 0.00 | 0.00 | 56 | 1005.3 | |
| 20260503213829 | 96 | 0.0 | 0.0 | 0.00 | 0.00 | 0.00 | 56 | 1005.3 | |
| 20260503213330 | 96 | 0.0 | 0.0 | 0.00 | 0.00 | 0.00 | 56 | 1005.2 | |
| 20260503212830 | 97 | 0.0 | 0.0 | 0.00 | 0.00 | 0.00 | 54 | 1005.1 | |
| 20260503212330 | 96 | 0.0 | 0.0 | 0.00 | 0.00 | 0.00 | 56 | 1005.1 | |
| 20260503211829 | 95 | 0.0 | 0.0 | 0.00 | 0.00 | 0.00 | 56 | 1005.1 | |
| 20260503211330 | 95 | 0.0 | 0.0 | 0.00 | 0.00 | 0.00 | 56 | 1005.1 | |
| 20260503210830 | 95 | 0.0 | 0.0 | 0.00 | 0.00 | 0.00 | 56 | 1005.1 | |
| 20260503210329 | 96 | 0.0 | 0.0 | 0.00 | 0.00 | 0.00 | 55 | 1005.0 | |
| 20260503205829 | 97 | 0.0 | 0.0 | 0.00 | 0.00 | 0.00 | 54 | 1005.1 | |
| 20260503205329 | 96 | 0.0 | 0.0 | 0.00 | 0.00 | 0.00 | 56 | 1004.9 | |
| 20260503204831 | 95 | 0.0 | 0.0 | 0.00 | 0.00 | 0.00 | 56 | 1005.0 | |
| 20260503204330 | 96 | 0.0 | 0.0 | 0.00 | 0.00 | 0.00 | 55 | 1005.0 | |
| 20260503203830 | 95 | 0.0 | 0.0 | 0.00 | 0.00 | 0.00 | 56 | 1004.9 | |
| 20260503203330 | 95 | 0.0 | 0.0 | 0.00 | 0.00 | 0.00 | 56 | 1004.9 | |
| 20260503202830 | 96 | 0.0 | 0.0 | 0.00 | 0.00 | 0.00 | 56 | 1004.9 | |
| 20260503202330 | 96 | 0.0 | 0.0 | 0.00 | 0.00 | 0.00 | 55 | 1004.9 | |
| 20260503201830 | 96 | 0.0 | 0.0 | 0.00 | 0.00 | 0.00 | 55 | 1005.0 | |
| 20260503201330 | 96 | 0.0 | 0.0 | 0.00 | 0.00 | 0.00 | 56 | 1005.0 | |
| 20260503200829 | 96 | 0.0 | 0.0 | 0.00 | 0.00 | 0.00 | 56 | 1004.9 | |
| 20260503200330 | 98 | 0.0 | 0.0 | 0.00 | 0.00 | 0.00 | 53 | 1005.0 | |
| 20260503195830 | 98 | 0.0 | 0.0 | 0.00 | 0.00 | 0.00 | 53 | 1005.0 | |
| 20260503195330 | 98 | 0.0 | 0.0 | 0.00 | 0.00 | 0.00 | 53 | 1005.1 | |
| 20260503194830 | 98 | 0.0 | 0.0 | 0.00 | 0.00 | 0.00 | 53 | 1005.1 | |
| 20260503194329 | 98 | 0.0 | 0.0 | 0.00 | 0.00 | 0.00 | 53 | 1005.1 | |
| 20260503193829 | 98 | 0.0 | 0.0 | 0.00 | 0.00 | 0.00 | 53 | 1005.1 | |
| 20260503193329 | 99 | 0.0 | 0.0 | 0.00 | 0.00 | 0.00 | 53 | 1005.2 | |
| 20260503192829 | 99 | 0.0 | 0.0 | 0.00 | 0.00 | 0.00 | 53 | 1005.3 | |
| 20260503192329 | 99 | 0.0 | 0.0 | 0.00 | 0.00 | 0.00 | 52 | 1005.3 | |
| 20260503191829 | 98 | 0.0 | 0.0 | 0.00 | 0.00 | 0.00 | 52 | 1005.3 | |
| 20260503191329 | 99 | 0.0 | 0.0 | 0.00 | 0.00 | 0.00 | 52 | 1005.3 | |
| 20260503190829 | 98 | 0.0 | 0.0 | 0.00 | 0.00 | 0.00 | 52 | 1005.3 | |
| 20260503190330 | 98 | 0.0 | 0.0 | 0.00 | 0.00 | 0.00 | 52 | 1005.4 | |
| 20260503185830 | 99 | 0.0 | 0.0 | 0.00 | 0.00 | 0.00 | 52 | 1005.5 | |
| 20260503185330 | 99 | 0.0 | 0.0 | 0.00 | 0.00 | 0.00 | 52 | 1005.5 | |
| 20260503184829 | 100 | 0.0 | 0.0 | 0.00 | 0.00 | 0.00 | 51 | 1005.5 | |
| 20260503184329 | 99 | 0.0 | 0.0 | 0.00 | 0.00 | 0.00 | 51 | 1005.6 | |
| 20260503183829 | 100 | 0.0 | 0.0 | 0.00 | 0.00 | 0.00 | 51 | 1005.6 | |
| 20260503183329 | 100 | 0.0 | 0.0 | 0.00 | 0.00 | 0.00 | 51 | 1005.6 | |
| 20260503182829 | 100 | 0.0 | 0.0 | 0.00 | 0.00 | 0.00 | 51 | 1005.7 | |
| 20260503182329 | 100 | 0.0 | 0.0 | 0.00 | 0.00 | 0.00 | 50 | 1005.7 | |
| 20260503181829 | 100 | 0.0 | 0.0 | 0.00 | 0.00 | 0.00 | 51 | 1005.8 | |
| 20260503181330 | 99 | 0.0 | 0.0 | 0.00 | 0.00 | 0.00 | 51 | 1005.9 | |
| 20260503180830 | 99 | 0.0 | 0.0 | 0.00 | 0.00 | 0.00 | 51 | 1005.9 | |
| 20260503180329 | 99 | 0.0 | 0.0 | 0.00 | 0.00 | 0.00 | 50 | 1005.9 | |
| 20260503175829 | 99 | 0.0 | 0.0 | 0.00 | 0.00 | 0.00 | 51 | 1005.9 | |
| 20260503175329 | 99 | 0.0 | 0.0 | 0.00 | 0.00 | 0.00 | 50 | 1005.8 | |
| 20260503174829 | 100 | 0.0 | 0.0 | 0.00 | 0.00 | 0.00 | 50 | 1005.8 | |
| 20260503174329 | 100 | 0.0 | 0.0 | 0.00 | 0.00 | 0.00 | 49 | 1005.8 | |
| 20260503173830 | 99 | 0.0 | 0.0 | 0.00 | 0.00 | 0.00 | 51 | 1005.9 | |
| 20260503173328 | 101 | 0.0 | 0.0 | 0.00 | 0.00 | 0.00 | 48 | 1005.9 | |
| 20260503172829 | 101 | 0.0 | 0.0 | 0.00 | 0.00 | 0.00 | 48 | 1005.9 | |
| 20260503172330 | 100 | 0.0 | 0.0 | 0.00 | 0.00 | 0.00 | 49 | 1005.9 | |
| 20260503171830 | 101 | 0.0 | 0.0 | 0.00 | 0.00 | 0.00 | 48 | 1006.0 | |
| 20260503171329 | 101 | 0.0 | 0.0 | 0.00 | 0.00 | 0.00 | 48 | 1006.0 | |
| 20260503170829 | 101 | 0.0 | 0.0 | 0.00 | 0.00 | 0.00 | 48 | 1006.1 | |
| 20260503170329 | 101 | 0.0 | 0.0 | 0.00 | 0.00 | 0.00 | 47 | 1006.1 | |
| 20260503150828 | 96 | 0.0 | 0.0 | 0.00 | 0.00 | 0.00 | 55 | 1004.9 | |
| 20260503150328 | 96 | 0.0 | 0.0 | 0.00 | 0.00 | 0.00 | 55 | 1004.7 | |
| 20260503131329 | 97 | 0.0 | 0.0 | 0.00 | 0.00 | 0.00 | 51 | 1003.1 | |
| 20260503130829 | 97 | 0.0 | 0.0 | 0.00 | 0.00 | 0.00 | 51 | 1002.9 | |
| 20260503130329 | 97 | 0.0 | 0.0 | 0.00 | 0.00 | 0.00 | 50 | 1002.7 |